A- A+ FrançaisEnglishEspañol中国

最近的 MMTO TolucaZLDH DunhuangLFFE Enghien-Moisselles LFPB Paris-Le-Bourget LFBT Tarbes-Lourdes-PyrénéesENBM Bomoen

飞行员的航空天气,使用METAR(气象机场报告)进行的飞行准备和TAF(终端机场预报:针对以下情况的短期天气预报)航空)。 以及其他资源,例如VAC(目视进近图)和NOTAM(通知飞行员)以进行预试飞行.

METAR, TAF, VAC, NOTAM Ljungbyhed机场 (Suède) / OACI ESTL

它位于附近 Ljungbyhed (Suède) 可提供5天天气预报 Ljungbyhed 在 1.8 km, Gålarp 在 6.2 km, Klåveröd 在 7.4 km, Klippan 在 7.8 km, Kagerod 在 10 km, Kvidinge 在 11 km, Perstorp 在 13 km, Svalövs Kommun 在 13 km,

机场的高度为 Ljungbyhed机场的

43 m = 141 ft

附近的机场 Ljungbyhed机场的

跑道 Ljungbyhed机场的

METAR Ljungbyhed机场的 - ESTL

ESTL 221420Z AUTO 13007KT 090V160 9999 NCD 20/M01 Q1028

Ljungbyhed机场METAR解码 (Suède)

ESTL机场发行的METAR日期2020年04月22日至14:20 GMT. 这是一个自动生成的METAR, 警告:此METAR已过期, 已于 33 天 22 小时 5 分钟.

可见度为大于 10 km = 大于6.2 sm.

温度为20°C = 68 °F 露点为-1°C = 30 °F 。 这相当于24%的相对湿度。.

QNH是1028 hPa = 30.36 inHg

的风7 kt = 13 km/h, 风向为130°.

天空晴朗

TAF Ljungbyhed机场的 - ESTL

ESTL 221104Z 2212/2215 10005KT CAVOK

Ljungbyhed机场TAF解码 (Suède)

ESTL机场发行的TAF日期2020年04月22日至11:04 GMT 警告:此TAF已过期, 已于 34 天 1 小时 21 分钟.

du mercredi 22 avril 2020 à 12:00 heure TU au mercredi 22 avril 2020 à 15:00 heure TU

天花板和能见度好,能见度超过10 km,5000英尺以下或最低扇区高度以下没有云。 没有积雨云或发芽的积云,无论它们的高度如何,也没有明显的天气

的风5 kt = 9 km/h, 风向为100°.

可见度为大于 10 km = 大于6.2 sm.

Ljungbyhed机场的NOTAM

提供的NOTAM不能保证其时事性。 在将其用于飞行准备或在飞行期间使用之前,飞行员是唯一负责验证其有效性的人员。

没有通知

数据源